sensor_id;sensor_type;location;lat;lon;timestamp;P1;durP1;ratioP1;P2;durP2;ratioP2
50733;SDS011;36701;51.798;19.474;2023-06-14T02:02:12;8.25;;;3.40;;
50733;SDS011;36701;51.798;19.474;2023-06-14T02:04:39;4.57;;;3.40;;
50733;SDS011;36701;51.798;19.474;2023-06-14T02:07:05;6.82;;;4.40;;
50733;SDS011;36701;51.798;19.474;2023-06-14T02:09:31;10.15;;;4.53;;
50733;SDS011;36701;51.798;19.474;2023-06-14T02:11:57;4.95;;;4.10;;
50733;SDS011;36701;51.798;19.474;2023-06-14T02:14:23;6.22;;;4.68;;
50733;SDS011;36701;51.798;19.474;2023-06-14T02:16:49;4.95;;;4.12;;
50733;SDS011;36701;51.798;19.474;2023-06-14T02:19:16;6.40;;;3.80;;
50733;SDS011;36701;51.798;19.474;2023-06-14T02:21:43;5.68;;;4.80;;
50733;SDS011;36701;51.798;19.474;2023-06-14T02:24:09;9.93;;;5.40;;
50733;SDS011;36701;51.798;19.474;2023-06-14T02:26:35;5.45;;;4.78;;
50733;SDS011;36701;51.798;19.474;2023-06-14T02:29:04;5.50;;;4.25;;
50733;SDS011;36701;51.798;19.474;2023-06-14T02:31:31;11.77;;;5.10;;
50733;SDS011;36701;51.798;19.474;2023-06-14T02:33:58;6.20;;;4.55;;
50733;SDS011;36701;51.798;19.474;2023-06-14T02:36:24;8.70;;;5.15;;
50733;SDS011;36701;51.798;19.474;2023-06-14T02:38:50;8.27;;;4.78;;
50733;SDS011;36701;51.798;19.474;2023-06-14T02:41:16;7.15;;;5.45;;
50733;SDS011;36701;51.798;19.474;2023-06-14T02:43:42;7.10;;;5.28;;
50733;SDS011;36701;51.798;19.474;2023-06-14T02:46:09;7.07;;;5.03;;
50733;SDS011;36701;51.798;19.474;2023-06-14T02:48:35;6.07;;;5.07;;
50733;SDS011;36701;51.798;19.474;2023-06-14T02:51:01;8.65;;;5.57;;
50733;SDS011;36701;51.798;19.474;2023-06-14T02:53:27;7.03;;;5.35;;
50733;SDS011;36701;51.798;19.474;2023-06-14T02:55:53;8.80;;;5.18;;
50733;SDS011;36701;51.798;19.474;2023-06-14T02:58:21;7.22;;;5.53;;
50733;SDS011;36701;51.798;19.474;2023-06-14T03:00:47;5.07;;;4.53;;
50733;SDS011;36701;51.798;19.474;2023-06-14T03:03:13;8.35;;;5.40;;
50733;SDS011;36701;51.798;19.474;2023-06-14T03:05:46;6.68;;;5.62;;
50733;SDS011;36701;51.798;19.474;2023-06-14T03:08:14;10.80;;;6.13;;
50733;SDS011;36701;51.798;19.474;2023-06-14T03:10:43;7.87;;;6.15;;
50733;SDS011;36701;51.798;19.474;2023-06-14T03:13:09;6.95;;;6.28;;
50733;SDS011;36701;51.798;19.474;2023-06-14T03:15:37;7.25;;;5.82;;
50733;SDS011;36701;51.798;19.474;2023-06-14T03:18:04;6.72;;;5.03;;
50733;SDS011;36701;51.798;19.474;2023-06-14T03:20:30;7.28;;;5.70;;
50733;SDS011;36701;51.798;19.474;2023-06-14T03:23:02;6.90;;;5.20;;
50733;SDS011;36701;51.798;19.474;2023-06-14T03:25:30;9.48;;;5.50;;
50733;SDS011;36701;51.798;19.474;2023-06-14T03:27:56;9.77;;;6.07;;
50733;SDS011;36701;51.798;19.474;2023-06-14T03:30:23;9.77;;;5.75;;
50733;SDS011;36701;51.798;19.474;2023-06-14T03:32:50;7.30;;;5.47;;
50733;SDS011;36701;51.798;19.474;2023-06-14T03:35:22;10.15;;;5.85;;
50733;SDS011;36701;51.798;19.474;2023-06-14T03:37:48;8.45;;;5.22;;
50733;SDS011;36701;51.798;19.474;2023-06-14T03:40:16;9.15;;;5.90;;
50733;SDS011;36701;51.798;19.474;2023-06-14T03:42:44;6.82;;;5.10;;
50733;SDS011;36701;51.798;19.474;2023-06-14T03:45:10;6.90;;;5.20;;
50733;SDS011;36701;51.798;19.474;2023-06-14T03:47:36;6.55;;;4.68;;
50733;SDS011;36701;51.798;19.474;2023-06-14T03:50:03;8.60;;;5.97;;
50733;SDS011;36701;51.798;19.474;2023-06-14T03:52:29;6.55;;;5.40;;
50733;SDS011;36701;51.798;19.474;2023-06-14T03:54:57;12.80;;;5.07;;
50733;SDS011;36701;51.798;19.474;2023-06-14T03:57:25;7.37;;;5.12;;
50733;SDS011;36701;51.798;19.474;2023-06-14T03:59:53;12.68;;;4.60;;
50733;SDS011;36701;51.798;19.474;2023-06-14T04:02:20;5.87;;;5.05;;
50733;SDS011;36701;51.798;19.474;2023-06-14T04:04:46;9.02;;;4.82;;
50733;SDS011;36701;51.798;19.474;2023-06-14T04:07:14;6.18;;;4.65;;
50733;SDS011;36701;51.798;19.474;2023-06-14T04:09:41;6.43;;;4.70;;
50733;SDS011;36701;51.798;19.474;2023-06-14T04:12:07;13.38;;;5.37;;
50733;SDS011;36701;51.798;19.474;2023-06-14T04:14:38;5.80;;;5.20;;
50733;SDS011;36701;51.798;19.474;2023-06-14T04:17:04;12.90;;;5.10;;
50733;SDS011;36701;51.798;19.474;2023-06-14T04:19:30;6.25;;;4.85;;
50733;SDS011;36701;51.798;19.474;2023-06-14T04:21:57;8.77;;;5.28;;
50733;SDS011;36701;51.798;19.474;2023-06-14T04:24:25;7.70;;;5.47;;
50733;SDS011;36701;51.798;19.474;2023-06-14T04:26:58;9.27;;;5.03;;
50733;SDS011;36701;51.798;19.474;2023-06-14T04:29:25;11.10;;;5.07;;
50733;SDS011;36701;51.798;19.474;2023-06-14T04:31:54;8.27;;;5.28;;
50733;SDS011;36701;51.798;19.474;2023-06-14T04:34:20;6.30;;;4.93;;
50733;SDS011;36701;51.798;19.474;2023-06-14T04:36:47;7.12;;;5.65;;
50733;SDS011;36701;51.798;19.474;2023-06-14T04:39:19;13.40;;;4.68;;
50733;SDS011;36701;51.798;19.474;2023-06-14T04:41:46;9.10;;;5.28;;
50733;SDS011;36701;51.798;19.474;2023-06-14T04:44:13;8.13;;;5.47;;
50733;SDS011;36701;51.798;19.474;2023-06-14T04:46:44;7.50;;;5.65;;
50733;SDS011;36701;51.798;19.474;2023-06-14T04:49:14;11.48;;;5.35;;
50733;SDS011;36701;51.798;19.474;2023-06-14T04:51:41;14.10;;;6.00;;
50733;SDS011;36701;51.798;19.474;2023-06-14T04:54:08;10.02;;;6.20;;
50733;SDS011;36701;51.798;19.474;2023-06-14T04:56:41;7.35;;;5.35;;
50733;SDS011;36701;51.798;19.474;2023-06-14T04:59:12;7.68;;;5.90;;
50733;SDS011;36701;51.798;19.474;2023-06-14T05:01:38;7.43;;;5.37;;
50733;SDS011;36701;51.798;19.474;2023-06-14T05:04:05;8.00;;;5.28;;
50733;SDS011;36701;51.798;19.474;2023-06-14T05:06:31;9.00;;;5.40;;
50733;SDS011;36701;51.798;19.474;2023-06-14T05:08:58;12.00;;;5.47;;
50733;SDS011;36701;51.798;19.474;2023-06-14T05:11:24;7.05;;;5.10;;
50733;SDS011;36701;51.798;19.474;2023-06-14T05:13:52;7.32;;;5.25;;
50733;SDS011;36701;51.798;19.474;2023-06-14T05:16:18;8.65;;;5.25;;
50733;SDS011;36701;51.798;19.474;2023-06-14T05:18:45;7.15;;;5.28;;
50733;SDS011;36701;51.798;19.474;2023-06-14T05:21:13;9.73;;;5.30;;
50733;SDS011;36701;51.798;19.474;2023-06-14T05:23:43;8.50;;;5.60;;
50733;SDS011;36701;51.798;19.474;2023-06-14T05:26:11;12.50;;;5.30;;
50733;SDS011;36701;51.798;19.474;2023-06-14T05:28:37;8.13;;;4.75;;
50733;SDS011;36701;51.798;19.474;2023-06-14T05:31:03;11.18;;;5.18;;
50733;SDS011;36701;51.798;19.474;2023-06-14T05:33:29;6.93;;;4.45;;
50733;SDS011;36701;51.798;19.474;2023-06-14T05:35:55;10.25;;;4.70;;
50733;SDS011;36701;51.798;19.474;2023-06-14T05:38:21;6.10;;;4.55;;
50733;SDS011;36701;51.798;19.474;2023-06-14T05:40:48;8.25;;;4.80;;
50733;SDS011;36701;51.798;19.474;2023-06-14T05:43:14;6.03;;;4.68;;
50733;SDS011;36701;51.798;19.474;2023-06-14T05:45:40;7.53;;;5.32;;
50733;SDS011;36701;51.798;19.474;2023-06-14T05:48:06;7.40;;;5.20;;
50733;SDS011;36701;51.798;19.474;2023-06-14T05:50:33;7.97;;;5.45;;
50733;SDS011;36701;51.798;19.474;2023-06-14T05:52:59;7.68;;;5.12;;
50733;SDS011;36701;51.798;19.474;2023-06-14T05:55:25;8.20;;;4.47;;
50733;SDS011;36701;51.798;19.474;2023-06-14T05:57:51;6.72;;;5.07;;
50733;SDS011;36701;51.798;19.474;2023-06-14T06:00:18;7.53;;;4.78;;
50733;SDS011;36701;51.798;19.474;2023-06-14T06:02:45;5.90;;;4.80;;
50733;SDS011;36701;51.798;19.474;2023-06-14T06:05:13;6.85;;;4.45;;
50733;SDS011;36701;51.798;19.474;2023-06-14T06:07:39;13.95;;;4.85;;
50733;SDS011;36701;51.798;19.474;2023-06-14T06:10:06;16.75;;;4.82;;
50733;SDS011;36701;51.798;19.474;2023-06-14T06:12:32;8.20;;;4.40;;
50733;SDS011;36701;51.798;19.474;2023-06-14T06:14:59;12.90;;;4.37;;
50733;SDS011;36701;51.798;19.474;2023-06-14T06:17:25;4.05;;;3.75;;
50733;SDS011;36701;51.798;19.474;2023-06-14T06:19:52;5.20;;;4.10;;
50733;SDS011;36701;51.798;19.474;2023-06-14T06:22:18;7.53;;;4.55;;
50733;SDS011;36701;51.798;19.474;2023-06-14T06:24:44;6.30;;;4.37;;
50733;SDS011;36701;51.798;19.474;2023-06-14T06:27:10;6.68;;;4.65;;
50733;SDS011;36701;51.798;19.474;2023-06-14T06:29:38;10.45;;;4.07;;
50733;SDS011;36701;51.798;19.474;2023-06-14T06:32:04;7.93;;;4.57;;
50733;SDS011;36701;51.798;19.474;2023-06-14T06:34:31;10.30;;;4.85;;
50733;SDS011;36701;51.798;19.474;2023-06-14T06:36:57;6.93;;;4.05;;
50733;SDS011;36701;51.798;19.474;2023-06-14T06:39:23;3.83;;;3.42;;
50733;SDS011;36701;51.798;19.474;2023-06-14T06:41:49;6.55;;;4.75;;
50733;SDS011;36701;51.798;19.474;2023-06-14T06:44:18;4.97;;;3.97;;
50733;SDS011;36701;51.798;19.474;2023-06-14T06:46:47;4.78;;;4.10;;
50733;SDS011;36701;51.798;19.474;2023-06-14T06:49:13;8.75;;;3.97;;
50733;SDS011;36701;51.798;19.474;2023-06-14T06:51:40;5.37;;;3.75;;
50733;SDS011;36701;51.798;19.474;2023-06-14T06:54:08;11.85;;;4.75;;
50733;SDS011;36701;51.798;19.474;2023-06-14T06:56:34;8.43;;;3.97;;
50733;SDS011;36701;51.798;19.474;2023-06-14T06:59:00;10.43;;;4.45;;
50733;SDS011;36701;51.798;19.474;2023-06-14T07:01:27;8.00;;;4.53;;
50733;SDS011;36701;51.798;19.474;2023-06-14T07:03:55;8.52;;;4.47;;
50733;SDS011;36701;51.798;19.474;2023-06-14T07:06:21;6.47;;;4.53;;
50733;SDS011;36701;51.798;19.474;2023-06-14T07:08:47;7.10;;;4.60;;
50733;SDS011;36701;51.798;19.474;2023-06-14T07:11:16;9.13;;;4.50;;
50733;SDS011;36701;51.798;19.474;2023-06-14T07:13:46;7.12;;;4.18;;
50733;SDS011;36701;51.798;19.474;2023-06-14T07:16:12;5.60;;;4.37;;
50733;SDS011;36701;51.798;19.474;2023-06-14T07:18:38;8.15;;;4.10;;
50733;SDS011;36701;51.798;19.474;2023-06-14T07:21:04;8.25;;;4.10;;
50733;SDS011;36701;51.798;19.474;2023-06-14T07:23:31;4.40;;;4.00;;
50733;SDS011;36701;51.798;19.474;2023-06-14T07:25:57;4.18;;;3.65;;
50733;SDS011;36701;51.798;19.474;2023-06-14T07:28:23;8.30;;;4.30;;
50733;SDS011;36701;51.798;19.474;2023-06-14T07:30:50;3.87;;;3.08;;
50733;SDS011;36701;51.798;19.474;2023-06-14T07:33:16;3.55;;;3.28;;
50733;SDS011;36701;51.798;19.474;2023-06-14T07:35:42;3.30;;;2.92;;
50733;SDS011;36701;51.798;19.474;2023-06-14T07:38:08;9.77;;;3.78;;
50733;SDS011;36701;51.798;19.474;2023-06-14T07:40:34;5.75;;;3.03;;
50733;SDS011;36701;51.798;19.474;2023-06-14T07:43:00;7.35;;;3.20;;
50733;SDS011;36701;51.798;19.474;2023-06-14T07:45:28;5.03;;;3.40;;
50733;SDS011;36701;51.798;19.474;2023-06-14T07:47:54;3.83;;;3.12;;
50733;SDS011;36701;51.798;19.474;2023-06-14T07:50:21;8.40;;;3.58;;
50733;SDS011;36701;51.798;19.474;2023-06-14T07:52:47;6.28;;;3.37;;
50733;SDS011;36701;51.798;19.474;2023-06-14T07:55:18;8.00;;;3.78;;
50733;SDS011;36701;51.798;19.474;2023-06-14T07:57:45;10.57;;;3.58;;
50733;SDS011;36701;51.798;19.474;2023-06-14T08:00:12;5.43;;;3.42;;
50733;SDS011;36701;51.798;19.474;2023-06-14T08:02:42;6.30;;;3.72;;
50733;SDS011;36701;51.798;19.474;2023-06-14T08:05:12;5.12;;;3.25;;
50733;SDS011;36701;51.798;19.474;2023-06-14T08:07:38;4.15;;;3.12;;
50733;SDS011;36701;51.798;19.474;2023-06-14T08:10:05;4.07;;;3.15;;
50733;SDS011;36701;51.798;19.474;2023-06-14T08:12:32;3.45;;;3.17;;
50733;SDS011;36701;51.798;19.474;2023-06-14T08:15:00;4.55;;;3.55;;
50733;SDS011;36701;51.798;19.474;2023-06-14T08:17:26;9.07;;;3.50;;
50733;SDS011;36701;51.798;19.474;2023-06-14T08:19:52;5.97;;;3.60;;
50733;SDS011;36701;51.798;19.474;2023-06-14T08:22:23;5.47;;;3.42;;
50733;SDS011;36701;51.798;19.474;2023-06-14T08:24:51;8.20;;;3.65;;
50733;SDS011;36701;51.798;19.474;2023-06-14T08:27:18;4.70;;;3.12;;
50733;SDS011;36701;51.798;19.474;2023-06-14T08:29:45;5.80;;;3.15;;
50733;SDS011;36701;51.798;19.474;2023-06-14T08:32:11;4.85;;;3.67;;
50733;SDS011;36701;51.798;19.474;2023-06-14T08:34:37;6.60;;;3.53;;
50733;SDS011;36701;51.798;19.474;2023-06-14T08:37:03;4.05;;;2.92;;
50733;SDS011;36701;51.798;19.474;2023-06-14T08:39:30;5.28;;;3.42;;
50733;SDS011;36701;51.798;19.474;2023-06-14T08:41:56;4.78;;;3.53;;
50733;SDS011;36701;51.798;19.474;2023-06-14T08:44:23;7.43;;;3.28;;
50733;SDS011;36701;51.798;19.474;2023-06-14T08:46:49;5.62;;;3.30;;
50733;SDS011;36701;51.798;19.474;2023-06-14T08:49:18;5.85;;;2.87;;
50733;SDS011;36701;51.798;19.474;2023-06-14T08:51:43;5.75;;;3.25;;
50733;SDS011;36701;51.798;19.474;2023-06-14T08:54:11;11.00;;;3.30;;
50733;SDS011;36701;51.798;19.474;2023-06-14T08:56:37;4.25;;;3.83;;
50733;SDS011;36701;51.798;19.474;2023-06-14T08:59:04;8.07;;;3.50;;
50733;SDS011;36701;51.798;19.474;2023-06-14T09:01:35;8.57;;;3.65;;
50733;SDS011;36701;51.798;19.474;2023-06-14T09:04:02;7.07;;;3.58;;
50733;SDS011;36701;51.798;19.474;2023-06-14T09:06:31;4.05;;;3.37;;
50733;SDS011;36701;51.798;19.474;2023-06-14T09:08:58;8.10;;;3.67;;
50733;SDS011;36701;51.798;19.474;2023-06-14T09:11:23;11.32;;;3.70;;
50733;SDS011;36701;51.798;19.474;2023-06-14T09:13:51;12.13;;;3.75;;
50733;SDS011;36701;51.798;19.474;2023-06-14T09:16:17;7.28;;;4.00;;
50733;SDS011;36701;51.798;19.474;2023-06-14T09:18:44;5.50;;;3.90;;
50733;SDS011;36701;51.798;19.474;2023-06-14T09:21:11;5.60;;;3.78;;
50733;SDS011;36701;51.798;19.474;2023-06-14T09:23:38;3.80;;;3.45;;
50733;SDS011;36701;51.798;19.474;2023-06-14T09:26:18;8.77;;;3.40;;
50733;SDS011;36701;51.798;19.474;2023-06-14T09:28:49;6.68;;;3.22;;
50733;SDS011;36701;51.798;19.474;2023-06-14T09:31:16;7.70;;;3.62;;
50733;SDS011;36701;51.798;19.474;2023-06-14T09:33:43;3.67;;;3.37;;
50733;SDS011;36701;51.798;19.474;2023-06-14T09:36:17;3.72;;;2.75;;
50733;SDS011;36701;51.798;19.474;2023-06-14T09:39:02;4.30;;;3.30;;
50733;SDS011;36701;51.798;19.474;2023-06-14T09:41:36;5.80;;;3.40;;
50733;SDS011;36701;51.798;19.474;2023-06-14T09:44:03;9.60;;;3.65;;
50733;SDS011;36701;51.798;19.474;2023-06-14T09:46:30;13.75;;;3.37;;
50733;SDS011;36701;51.798;19.474;2023-06-14T09:48:56;8.32;;;3.40;;
50733;SDS011;36701;51.798;19.474;2023-06-14T09:51:23;4.65;;;3.30;;
50733;SDS011;36701;51.798;19.474;2023-06-14T09:53:49;3.92;;;2.72;;
50733;SDS011;36701;51.798;19.474;2023-06-14T09:56:17;6.03;;;3.60;;
50733;SDS011;36701;51.798;19.474;2023-06-14T09:58:45;4.07;;;2.90;;
50733;SDS011;36701;51.798;19.474;2023-06-14T10:01:12;4.85;;;2.62;;
50733;SDS011;36701;51.798;19.474;2023-06-14T10:03:39;4.32;;;2.78;;
50733;SDS011;36701;51.798;19.474;2023-06-14T10:06:06;9.35;;;3.83;;
50733;SDS011;36701;51.798;19.474;2023-06-14T10:08:33;3.10;;;2.80;;
50733;SDS011;36701;51.798;19.474;2023-06-14T10:11:03;23.08;;;11.30;;
50733;SDS011;36701;51.798;19.474;2023-06-14T10:13:31;8.90;;;3.08;;
50733;SDS011;36701;51.798;19.474;2023-06-14T10:16:01;6.80;;;3.37;;
50733;SDS011;36701;51.798;19.474;2023-06-14T10:18:35;3.42;;;3.00;;
50733;SDS011;36701;51.798;19.474;2023-06-14T10:21:06;7.73;;;3.10;;
50733;SDS011;36701;51.798;19.474;2023-06-14T10:23:37;5.22;;;3.37;;
50733;SDS011;36701;51.798;19.474;2023-06-14T10:26:04;3.40;;;3.10;;
50733;SDS011;36701;51.798;19.474;2023-06-14T10:28:30;12.95;;;3.10;;
50733;SDS011;36701;51.798;19.474;2023-06-14T10:31:08;9.95;;;3.10;;
50733;SDS011;36701;51.798;19.474;2023-06-14T10:33:35;5.85;;;2.85;;
50733;SDS011;36701;51.798;19.474;2023-06-14T10:38:35;4.87;;;3.40;;
50733;SDS011;36701;51.798;19.474;2023-06-14T10:41:03;2.75;;;2.55;;
50733;SDS011;36701;51.798;19.474;2023-06-14T10:43:29;7.25;;;2.90;;
50733;SDS011;36701;51.798;19.474;2023-06-14T10:46:11;9.15;;;3.25;;
50733;SDS011;36701;51.798;19.474;2023-06-14T10:48:44;8.25;;;3.25;;
50733;SDS011;36701;51.798;19.474;2023-06-14T10:51:17;4.55;;;3.15;;
50733;SDS011;36701;51.798;19.474;2023-06-14T10:53:51;5.72;;;2.92;;
50733;SDS011;36701;51.798;19.474;2023-06-14T10:56:22;3.37;;;2.50;;
50733;SDS011;36701;51.798;19.474;2023-06-14T10:58:50;3.20;;;2.28;;
50733;SDS011;36701;51.798;19.474;2023-06-14T11:01:22;3.42;;;2.90;;
50733;SDS011;36701;51.798;19.474;2023-06-14T11:03:51;2.47;;;2.28;;
50733;SDS011;36701;51.798;19.474;2023-06-14T11:06:22;12.98;;;2.78;;
50733;SDS011;36701;51.798;19.474;2023-06-14T11:11:36;3.80;;;3.33;;
50733;SDS011;36701;51.798;19.474;2023-06-14T11:14:02;5.22;;;3.33;;
50733;SDS011;36701;51.798;19.474;2023-06-14T11:16:28;3.72;;;3.03;;
50733;SDS011;36701;51.798;19.474;2023-06-14T11:18:55;6.85;;;3.35;;
50733;SDS011;36701;51.798;19.474;2023-06-14T11:21:21;4.55;;;2.85;;
50733;SDS011;36701;51.798;19.474;2023-06-14T11:23:50;6.78;;;3.40;;
50733;SDS011;36701;51.798;19.474;2023-06-14T11:26:24;4.85;;;2.85;;
50733;SDS011;36701;51.798;19.474;2023-06-14T11:28:54;9.13;;;3.28;;
50733;SDS011;36701;51.798;19.474;2023-06-14T11:31:21;6.60;;;3.08;;
50733;SDS011;36701;51.798;19.474;2023-06-14T11:33:50;10.07;;;3.92;;
50733;SDS011;36701;51.798;19.474;2023-06-14T11:36:16;5.78;;;2.78;;
50733;SDS011;36701;51.798;19.474;2023-06-14T11:38:43;9.88;;;3.70;;
50733;SDS011;36701;51.798;19.474;2023-06-14T11:41:09;16.02;;;3.62;;
50733;SDS011;36701;51.798;19.474;2023-06-14T11:43:36;9.93;;;2.58;;
50733;SDS011;36701;51.798;19.474;2023-06-14T11:46:03;3.85;;;3.20;;
50733;SDS011;36701;51.798;19.474;2023-06-14T11:48:39;6.80;;;2.78;;
50733;SDS011;36701;51.798;19.474;2023-06-14T11:51:06;6.00;;;3.75;;
50733;SDS011;36701;51.798;19.474;2023-06-14T11:53:32;30.15;;;16.23;;
50733;SDS011;36701;51.798;19.474;2023-06-14T11:55:59;6.80;;;3.12;;
50733;SDS011;36701;51.798;19.474;2023-06-14T11:58:26;7.18;;;3.20;;
50733;SDS011;36701;51.798;19.474;2023-06-14T12:00:53;4.53;;;3.03;;
50733;SDS011;36701;51.798;19.474;2023-06-14T12:03:23;5.32;;;3.53;;
50733;SDS011;36701;51.798;19.474;2023-06-14T12:06:06;4.72;;;3.33;;
50733;SDS011;36701;51.798;19.474;2023-06-14T12:08:36;4.55;;;3.17;;
50733;SDS011;36701;51.798;19.474;2023-06-14T12:11:14;7.70;;;2.90;;
50733;SDS011;36701;51.798;19.474;2023-06-14T12:13:41;3.08;;;2.78;;
50733;SDS011;36701;51.798;19.474;2023-06-14T12:16:10;6.75;;;3.53;;
50733;SDS011;36701;51.798;19.474;2023-06-14T12:18:39;4.62;;;3.40;;
50733;SDS011;36701;51.798;19.474;2023-06-14T12:21:06;9.48;;;2.80;;
50733;SDS011;36701;51.798;19.474;2023-06-14T12:23:45;2.83;;;2.62;;
50733;SDS011;36701;51.798;19.474;2023-06-14T12:26:12;5.80;;;2.40;;
50733;SDS011;36701;51.798;19.474;2023-06-14T12:28:39;12.70;;;2.87;;
50733;SDS011;36701;51.798;19.474;2023-06-14T12:31:10;8.98;;;2.95;;
50733;SDS011;36701;51.798;19.474;2023-06-14T12:33:37;3.40;;;2.87;;
50733;SDS011;36701;51.798;19.474;2023-06-14T12:36:08;8.60;;;4.00;;
50733;SDS011;36701;51.798;19.474;2023-06-14T12:38:36;4.72;;;2.85;;
50733;SDS011;36701;51.798;19.474;2023-06-14T12:41:04;8.68;;;3.17;;
50733;SDS011;36701;51.798;19.474;2023-06-14T12:43:30;3.47;;;2.50;;
50733;SDS011;36701;51.798;19.474;2023-06-14T12:45:56;10.18;;;2.87;;
50733;SDS011;36701;51.798;19.474;2023-06-14T12:48:22;3.72;;;1.90;;
50733;SDS011;36701;51.798;19.474;2023-06-14T12:50:49;6.57;;;1.90;;
50733;SDS011;36701;51.798;19.474;2023-06-14T12:53:15;2.35;;;1.62;;
50733;SDS011;36701;51.798;19.474;2023-06-14T12:55:41;1.92;;;1.83;;
50733;SDS011;36701;51.798;19.474;2023-06-14T12:58:07;1.87;;;1.77;;
50733;SDS011;36701;51.798;19.474;2023-06-14T13:00:33;3.65;;;2.58;;
50733;SDS011;36701;51.798;19.474;2023-06-14T13:03:00;9.38;;;3.10;;
50733;SDS011;36701;51.798;19.474;2023-06-14T13:05:26;7.78;;;3.20;;
50733;SDS011;36701;51.798;19.474;2023-06-14T13:07:52;6.12;;;4.20;;
50733;SDS011;36701;51.798;19.474;2023-06-14T13:10:19;9.80;;;4.22;;
50733;SDS011;36701;51.798;19.474;2023-06-14T13:12:45;5.35;;;4.37;;
50733;SDS011;36701;51.798;19.474;2023-06-14T13:15:11;9.23;;;5.50;;
50733;SDS011;36701;51.798;19.474;2023-06-14T13:17:38;6.15;;;4.57;;
50733;SDS011;36701;51.798;19.474;2023-06-14T13:20:07;9.63;;;4.97;;
50733;SDS011;36701;51.798;19.474;2023-06-14T13:22:34;7.68;;;4.30;;
50733;SDS011;36701;51.798;19.474;2023-06-14T13:25:01;7.00;;;4.60;;
50733;SDS011;36701;51.798;19.474;2023-06-14T13:27:27;9.23;;;3.60;;
50733;SDS011;36701;51.798;19.474;2023-06-14T13:29:53;8.60;;;3.70;;
50733;SDS011;36701;51.798;19.474;2023-06-14T13:32:20;9.50;;;4.75;;
50733;SDS011;36701;51.798;19.474;2023-06-14T13:34:47;8.57;;;5.07;;
50733;SDS011;36701;51.798;19.474;2023-06-14T13:37:13;10.20;;;4.78;;
50733;SDS011;36701;51.798;19.474;2023-06-14T13:39:40;6.60;;;4.85;;
50733;SDS011;36701;51.798;19.474;2023-06-14T13:42:06;11.35;;;4.62;;
50733;SDS011;36701;51.798;19.474;2023-06-14T13:44:32;13.13;;;5.12;;
50733;SDS011;36701;51.798;19.474;2023-06-14T13:46:59;7.87;;;4.70;;
50733;SDS011;36701;51.798;19.474;2023-06-14T13:49:26;6.20;;;4.68;;
50733;SDS011;36701;51.798;19.474;2023-06-14T13:51:52;8.18;;;4.35;;
50733;SDS011;36701;51.798;19.474;2023-06-14T13:54:19;5.47;;;4.82;;
50733;SDS011;36701;51.798;19.474;2023-06-14T13:56:46;6.00;;;4.80;;
50733;SDS011;36701;51.798;19.474;2023-06-14T13:59:13;9.77;;;5.20;;
50733;SDS011;36701;51.798;19.474;2023-06-14T14:01:39;6.18;;;4.37;;
50733;SDS011;36701;51.798;19.474;2023-06-14T14:04:06;11.00;;;5.85;;
50733;SDS011;36701;51.798;19.474;2023-06-14T14:06:32;7.75;;;4.47;;
50733;SDS011;36701;51.798;19.474;2023-06-14T14:08:58;6.25;;;4.82;;
50733;SDS011;36701;51.798;19.474;2023-06-14T14:11:24;4.65;;;4.20;;
50733;SDS011;36701;51.798;19.474;2023-06-14T14:13:51;6.55;;;4.53;;
50733;SDS011;36701;51.798;19.474;2023-06-14T14:16:18;13.15;;;5.60;;
50733;SDS011;36701;51.798;19.474;2023-06-14T14:18:46;8.60;;;4.70;;
50733;SDS011;36701;51.798;19.474;2023-06-14T14:21:18;7.28;;;4.95;;
50733;SDS011;36701;51.798;19.474;2023-06-14T14:23:45;7.28;;;5.65;;
50733;SDS011;36701;51.798;19.474;2023-06-14T14:26:11;6.90;;;4.20;;
50733;SDS011;36701;51.798;19.474;2023-06-14T14:28:37;6.62;;;5.05;;
50733;SDS011;36701;51.798;19.474;2023-06-14T14:31:03;10.13;;;5.18;;
50733;SDS011;36701;51.798;19.474;2023-06-14T14:33:30;9.30;;;5.47;;
50733;SDS011;36701;51.798;19.474;2023-06-14T14:35:56;9.30;;;5.57;;
50733;SDS011;36701;51.798;19.474;2023-06-14T14:38:22;8.10;;;6.10;;
50733;SDS011;36701;51.798;19.474;2023-06-14T14:40:49;10.75;;;5.50;;
50733;SDS011;36701;51.798;19.474;2023-06-14T14:43:15;12.18;;;5.65;;
50733;SDS011;36701;51.798;19.474;2023-06-14T14:45:41;8.20;;;5.78;;
50733;SDS011;36701;51.798;19.474;2023-06-14T14:48:07;8.25;;;5.72;;
50733;SDS011;36701;51.798;19.474;2023-06-14T14:50:33;6.25;;;5.20;;
50733;SDS011;36701;51.798;19.474;2023-06-14T14:53:00;17.73;;;6.25;;
50733;SDS011;36701;51.798;19.474;2023-06-14T14:55:26;9.20;;;5.03;;
50733;SDS011;36701;51.798;19.474;2023-06-14T14:57:53;15.32;;;8.30;;
50733;SDS011;36701;51.798;19.474;2023-06-14T15:00:18;11.23;;;6.05;;
50733;SDS011;36701;51.798;19.474;2023-06-14T15:02:45;8.43;;;5.78;;
50733;SDS011;36701;51.798;19.474;2023-06-14T15:05:11;13.35;;;5.62;;
50733;SDS011;36701;51.798;19.474;2023-06-14T15:07:37;6.03;;;5.43;;
50733;SDS011;36701;51.798;19.474;2023-06-14T15:10:06;6.60;;;4.93;;
50733;SDS011;36701;51.798;19.474;2023-06-14T15:12:34;17.48;;;6.97;;
50733;SDS011;36701;51.798;19.474;2023-06-14T15:15:00;12.50;;;4.75;;
50733;SDS011;36701;51.798;19.474;2023-06-14T15:17:27;6.32;;;4.85;;
50733;SDS011;36701;51.798;19.474;2023-06-14T15:19:53;9.13;;;5.53;;
50733;SDS011;36701;51.798;19.474;2023-06-14T15:22:19;10.82;;;6.53;;
50733;SDS011;36701;51.798;19.474;2023-06-14T15:24:45;10.27;;;6.70;;
50733;SDS011;36701;51.798;19.474;2023-06-14T15:27:12;12.45;;;6.10;;
50733;SDS011;36701;51.798;19.474;2023-06-14T15:29:39;11.15;;;6.10;;
50733;SDS011;36701;51.798;19.474;2023-06-14T15:32:05;7.95;;;6.10;;
50733;SDS011;36701;51.798;19.474;2023-06-14T15:34:32;5.60;;;5.10;;
50733;SDS011;36701;51.798;19.474;2023-06-14T15:36:58;7.18;;;4.85;;
50733;SDS011;36701;51.798;19.474;2023-06-14T15:39:25;6.12;;;4.47;;
50733;SDS011;36701;51.798;19.474;2023-06-14T15:41:52;6.25;;;3.90;;
50733;SDS011;36701;51.798;19.474;2023-06-14T15:44:18;5.55;;;4.25;;
50733;SDS011;36701;51.798;19.474;2023-06-14T15:46:45;6.60;;;4.97;;
50733;SDS011;36701;51.798;19.474;2023-06-14T15:49:12;6.80;;;5.35;;
50733;SDS011;36701;51.798;19.474;2023-06-14T15:51:39;6.57;;;5.82;;
50733;SDS011;36701;51.798;19.474;2023-06-14T15:54:06;7.82;;;5.90;;
50733;SDS011;36701;51.798;19.474;2023-06-14T15:56:32;10.23;;;6.53;;
50733;SDS011;36701;51.798;19.474;2023-06-14T15:58:58;19.27;;;7.82;;
50733;SDS011;36701;51.798;19.474;2023-06-14T16:01:26;11.57;;;7.68;;
50733;SDS011;36701;51.798;19.474;2023-06-14T16:03:52;6.93;;;5.53;;
50733;SDS011;36701;51.798;19.474;2023-06-14T16:06:18;17.62;;;6.75;;
50733;SDS011;36701;51.798;19.474;2023-06-14T16:08:44;14.80;;;7.57;;
50733;SDS011;36701;51.798;19.474;2023-06-14T16:11:11;9.75;;;6.82;;
50733;SDS011;36701;51.798;19.474;2023-06-14T16:13:40;18.60;;;6.68;;
50733;SDS011;36701;51.798;19.474;2023-06-14T16:16:08;14.45;;;7.40;;
50733;SDS011;36701;51.798;19.474;2023-06-14T16:18:34;15.10;;;7.50;;
50733;SDS011;36701;51.798;19.474;2023-06-14T16:21:01;15.07;;;7.30;;
50733;SDS011;36701;51.798;19.474;2023-06-14T16:23:27;15.70;;;7.57;;
50733;SDS011;36701;51.798;19.474;2023-06-14T16:25:54;9.98;;;6.97;;
50733;SDS011;36701;51.798;19.474;2023-06-14T16:28:20;11.38;;;7.68;;
50733;SDS011;36701;51.798;19.474;2023-06-14T16:30:46;13.00;;;7.97;;
50733;SDS011;36701;51.798;19.474;2023-06-14T16:33:13;16.85;;;8.68;;
50733;SDS011;36701;51.798;19.474;2023-06-14T16:35:39;11.85;;;8.13;;
50733;SDS011;36701;51.798;19.474;2023-06-14T16:38:05;12.37;;;7.97;;